createdAt,value
2023-02-11T00:00:28.323Z,1023.6
2023-02-11T00:03:29.154Z,1023.6
2023-02-11T00:06:28.819Z,1023.6
2023-02-11T00:09:31.544Z,1023.7
2023-02-11T00:12:28.603Z,1023.7
2023-02-11T00:15:43.014Z,1023.7
2023-02-11T00:18:28.699Z,1023.7
2023-02-11T00:21:28.060Z,1023.7
2023-02-11T00:24:28.483Z,1023.6
2023-02-11T00:27:28.485Z,1023.6
2023-02-11T00:30:29.138Z,1023.6
2023-02-11T00:33:28.331Z,1023.7
2023-02-11T00:36:28.240Z,1023.7
2023-02-11T00:39:28.702Z,1023.6
2023-02-11T00:42:28.529Z,1023.6
2023-02-11T00:45:38.880Z,1023.5
2023-02-11T00:48:28.449Z,1023.5
2023-02-11T00:51:28.950Z,1023.4
2023-02-11T00:54:29.991Z,1023.3
2023-02-11T00:57:28.614Z,1023.2
2023-02-11T01:00:28.375Z,1023.2
2023-02-11T01:03:28.987Z,1023.1
2023-02-11T01:06:28.889Z,1023.1
2023-02-11T01:09:28.626Z,1023.1
2023-02-11T01:12:28.242Z,1023.1
2023-02-11T01:15:28.923Z,1023.1
2023-02-11T01:18:28.974Z,1023.1
2023-02-11T01:21:28.645Z,1023.1
2023-02-11T01:24:29.124Z,1023.1
2023-02-11T01:27:28.727Z,1023.1
2023-02-11T01:30:28.613Z,1023.1
2023-02-11T01:33:28.305Z,1023
2023-02-11T01:36:28.992Z,1023
2023-02-11T01:39:28.737Z,1022.9
2023-02-11T01:42:28.302Z,1022.9
2023-02-11T01:45:29.016Z,1022.8
2023-02-11T01:48:28.777Z,1022.8
2023-02-11T01:51:28.539Z,1022.8
2023-02-11T01:54:28.658Z,1022.9
2023-02-11T01:57:28.515Z,1022.9
2023-02-11T02:00:29.025Z,1022.9
2023-02-11T02:03:28.447Z,1023
2023-02-11T02:06:28.751Z,1022.9
2023-02-11T02:09:28.622Z,1022.9
2023-02-11T02:12:28.535Z,1022.8
2023-02-11T02:15:28.239Z,1022.8
2023-02-11T02:18:28.858Z,1022.7
2023-02-11T02:21:28.697Z,1022.7
2023-02-11T02:24:28.450Z,1022.6
2023-02-11T02:27:29.178Z,1022.5
2023-02-11T02:30:28.967Z,1022.4
2023-02-11T02:33:28.734Z,1022.4
2023-02-11T02:36:29.030Z,1022.4
2023-02-11T02:39:28.880Z,1022.4
2023-02-11T02:42:28.796Z,1022.4
2023-02-11T02:45:28.239Z,1022.4
2023-02-11T02:48:29.117Z,1022.4
2023-02-11T02:51:28.365Z,1022.3
2023-02-11T02:54:28.778Z,1022.3
2023-02-11T02:57:28.294Z,1022.3
2023-02-11T03:00:28.855Z,1022.3
2023-02-11T03:03:28.575Z,1022.3
2023-02-11T03:06:29.250Z,1022.3
2023-02-11T03:09:28.778Z,1022.3
2023-02-11T03:12:28.215Z,1022.4
2023-02-11T03:15:28.240Z,1022.3
2023-02-11T03:18:28.938Z,1022.2
2023-02-11T03:21:28.487Z,1022.2
2023-02-11T03:24:29.087Z,1022.1
2023-02-11T03:27:28.623Z,1022.1
2023-02-11T03:30:29.572Z,1022
2023-02-11T03:33:28.779Z,1022
2023-02-11T03:36:28.379Z,1021.9
2023-02-11T03:39:29.123Z,1021.9
2023-02-11T03:42:28.534Z,1021.9
2023-02-11T03:45:28.898Z,1021.9
2023-02-11T03:48:28.598Z,1021.8
2023-02-11T03:51:29.045Z,1021.8
2023-02-11T03:54:28.576Z,1021.8
2023-02-11T03:57:29.046Z,1021.8
2023-02-11T04:00:28.478Z,1021.9
2023-02-11T04:03:28.939Z,1021.9
2023-02-11T04:06:28.321Z,1021.9
2023-02-11T04:09:29.066Z,1022
2023-02-11T04:12:28.467Z,1022
2023-02-11T04:15:28.963Z,1022.1
2023-02-11T04:18:28.639Z,1022.1
2023-02-11T04:21:28.264Z,1022.1
2023-02-11T04:24:28.713Z,1022.1
2023-02-11T04:27:28.562Z,1022.1
2023-02-11T04:30:28.447Z,1022.1
2023-02-11T04:33:28.932Z,1022.1
2023-02-11T04:36:28.535Z,1022.2
2023-02-11T04:39:29.131Z,1022.2
2023-02-11T04:42:28.526Z,1022.2
2023-02-11T04:45:28.336Z,1022.1
2023-02-11T04:48:29.019Z,1022.1
2023-02-11T04:51:28.295Z,1022
2023-02-11T04:54:28.804Z,1022
2023-02-11T04:57:28.434Z,1022
2023-02-11T05:00:29.125Z,1022
2023-02-11T05:03:28.624Z,1022
2023-02-11T05:06:28.200Z,1022
2023-02-11T05:09:28.781Z,1022.1
2023-02-11T05:12:28.936Z,1022.1
2023-02-11T05:15:28.614Z,1022.1
2023-02-11T05:18:28.394Z,1022
2023-02-11T05:21:28.878Z,1022
2023-02-11T05:24:28.638Z,1022
2023-02-11T05:27:28.507Z,1021.9
2023-02-11T05:30:29.074Z,1021.9
2023-02-11T05:33:28.164Z,1021.8
2023-02-11T05:36:29.824Z,1021.7
2023-02-11T05:39:29.127Z,1021.6
2023-02-11T05:42:28.719Z,1021.6
2023-02-11T05:45:28.723Z,1021.7
2023-02-11T05:48:28.690Z,1021.7
2023-02-11T05:51:28.460Z,1021.7
2023-02-11T05:54:28.889Z,1021.7
2023-02-11T05:57:28.764Z,1021.7
2023-02-11T06:00:29.361Z,1021.7
2023-02-11T06:03:29.556Z,1021.7
2023-02-11T06:06:28.405Z,1021.7
2023-02-11T06:09:29.059Z,1021.7
2023-02-11T06:12:28.715Z,1021.8
2023-02-11T06:15:28.673Z,1021.8
2023-02-11T06:18:28.492Z,1021.9
2023-02-11T06:21:42.460Z,1021.9
2023-02-11T06:24:54.718Z,1021.9
2023-02-11T06:27:28.964Z,1022
2023-02-11T06:30:28.861Z,1022
2023-02-11T06:33:28.155Z,1022.1
2023-02-11T06:36:29.035Z,1022.1
2023-02-11T06:39:28.565Z,1022.1
2023-02-11T06:42:28.405Z,1022.1
2023-02-11T06:45:29.102Z,1022.1
2023-02-11T06:48:28.305Z,1022.1
2023-02-11T06:51:28.947Z,1022.1
2023-02-11T06:54:28.727Z,1022.1
2023-02-11T06:57:28.457Z,1022.2
2023-02-11T07:00:28.412Z,1022.2
2023-02-11T07:03:29.070Z,1022.2
2023-02-11T07:06:29.171Z,1022.2
2023-02-11T07:09:28.785Z,1022.3
2023-02-11T07:12:28.397Z,1022.4
2023-02-11T07:15:29.299Z,1022.4
2023-02-11T07:18:29.146Z,1022.4
2023-02-11T07:21:29.129Z,1022.3
2023-02-11T07:24:29.023Z,1022.2
2023-02-11T07:27:28.905Z,1022.2
2023-02-11T07:30:28.902Z,1022.2
2023-02-11T07:33:28.694Z,1022.2
2023-02-11T07:36:28.759Z,1022.3
2023-02-11T07:39:28.755Z,1022.4
2023-02-11T07:42:28.550Z,1022.5
2023-02-11T07:45:28.525Z,1022.6
2023-02-11T07:48:29.265Z,1022.7
2023-02-11T07:51:29.140Z,1022.7
2023-02-11T07:54:29.116Z,1022.7
2023-02-11T07:57:29.158Z,1022.8
2023-02-11T08:00:29.032Z,1022.8
2023-02-11T08:03:29.128Z,1022.8
2023-02-11T08:06:28.961Z,1022.8
2023-02-11T08:09:28.600Z,1022.9
2023-02-11T08:12:28.947Z,1022.9
2023-02-11T08:15:28.712Z,1023
2023-02-11T08:18:28.680Z,1023
2023-02-11T08:21:28.581Z,1023
2023-02-11T08:24:28.639Z,1023.1
2023-02-11T08:27:29.413Z,1023.1
2023-02-11T08:30:29.853Z,1023.2
2023-02-11T08:33:28.833Z,1023.2
2023-02-11T08:36:29.792Z,1023.2
2023-02-11T08:39:28.984Z,1023.3
2023-02-11T08:42:29.091Z,1023.3
2023-02-11T08:45:28.889Z,1023.3
2023-02-11T08:48:29.450Z,1023.3
2023-02-11T08:51:28.653Z,1023.3
2023-02-11T08:54:29.314Z,1023.3
2023-02-11T08:57:29.504Z,1023.3
2023-02-11T09:00:28.467Z,1023.2
2023-02-11T09:03:28.372Z,1023.3
2023-02-11T09:06:28.482Z,1023.3
2023-02-11T09:09:28.668Z,1023.3
2023-02-11T09:12:28.301Z,1023.4
2023-02-11T09:15:28.509Z,1023.5
2023-02-11T09:18:28.680Z,1023.5
2023-02-11T09:21:28.643Z,1023.4
2023-02-11T09:24:29.249Z,1023.4
2023-02-11T09:27:29.170Z,1023.4
2023-02-11T09:30:28.968Z,1023.4
2023-02-11T09:33:29.512Z,1023.5
2023-02-11T09:36:28.462Z,1023.5
2023-02-11T09:39:29.396Z,1023.6
2023-02-11T09:42:29.187Z,1023.6
2023-02-11T09:45:28.899Z,1023.6
2023-02-11T09:48:32.280Z,1023.6
2023-02-11T09:51:29.191Z,1023.6
2023-02-11T09:54:28.787Z,1023.7
2023-02-11T09:57:29.572Z,1023.7
2023-02-11T10:00:29.350Z,1023.8
2023-02-11T10:03:28.757Z,1023.8
2023-02-11T10:06:28.663Z,1023.8
2023-02-11T10:09:28.899Z,1023.8
2023-02-11T10:12:28.504Z,1023.8
2023-02-11T10:15:29.353Z,1023.9
2023-02-11T10:18:28.811Z,1024
2023-02-11T10:21:28.335Z,1023.9
2023-02-11T10:24:29.004Z,1023.9
2023-02-11T10:27:29.142Z,1023.9
2023-02-11T10:30:29.052Z,1023.9
2023-02-11T10:33:29.146Z,1023.9
2023-02-11T10:36:28.998Z,1023.9
2023-02-11T10:39:28.849Z,1024
2023-02-11T10:42:29.243Z,1024
2023-02-11T10:45:29.164Z,1024
2023-02-11T10:48:28.966Z,1023.9
2023-02-11T10:51:28.391Z,1023.9
2023-02-11T10:54:29.193Z,1023.8
2023-02-11T10:57:29.132Z,1023.9
2023-02-11T11:00:28.766Z,1023.9
2023-02-11T11:03:28.972Z,1024
2023-02-11T11:06:28.773Z,1024
2023-02-11T11:09:28.951Z,1024
2023-02-11T11:12:28.723Z,1023.9
2023-02-11T11:15:28.758Z,1023.8
2023-02-11T11:18:28.558Z,1023.8
2023-02-11T11:21:29.191Z,1023.8
2023-02-11T11:24:29.124Z,1023.8
2023-02-11T11:27:29.112Z,1023.9
2023-02-11T11:30:28.904Z,1023.9
2023-02-11T11:33:29.025Z,1024
2023-02-11T11:36:28.541Z,1024
2023-02-11T11:39:28.378Z,1024
2023-02-11T11:42:29.228Z,1024
2023-02-11T11:45:29.048Z,1024
2023-02-11T11:48:28.765Z,1024.1
2023-02-11T11:51:28.269Z,1024.1
2023-02-11T11:54:28.608Z,1024.1
2023-02-11T11:57:28.480Z,1024.2
2023-02-11T12:00:29.395Z,1024.2
2023-02-11T12:03:28.531Z,1024.2
2023-02-11T12:06:28.949Z,1024.2
2023-02-11T12:09:28.822Z,1024.2
2023-02-11T12:12:28.947Z,1024.3
2023-02-11T12:15:28.783Z,1024.3
2023-02-11T12:18:28.699Z,1024.3
2023-02-11T12:21:28.404Z,1024.2
2023-02-11T12:24:29.031Z,1024.1
2023-02-11T12:27:29.258Z,1024.1
2023-02-11T12:30:29.162Z,1024.1
2023-02-11T12:33:28.984Z,1024.1
2023-02-11T12:36:28.732Z,1024.1
2023-02-11T12:39:28.505Z,1024.1
2023-02-11T12:42:28.482Z,1024.2
2023-02-11T12:45:28.723Z,1024.3
2023-02-11T12:48:28.548Z,1024.3
2023-02-11T12:51:29.303Z,1024.3
2023-02-11T12:54:28.771Z,1024.3
2023-02-11T12:57:28.434Z,1024.3
2023-02-11T13:00:29.066Z,1024.3
2023-02-11T13:03:28.741Z,1024.3
2023-02-11T13:06:28.565Z,1024.4
2023-02-11T13:09:29.258Z,1024.4
2023-02-11T13:12:28.947Z,1024.4
2023-02-11T13:15:28.790Z,1024.4
2023-02-11T13:18:29.377Z,1024.5
2023-02-11T13:21:29.165Z,1024.5
2023-02-11T13:24:28.996Z,1024.5
2023-02-11T13:27:28.742Z,1024.4
2023-02-11T13:30:28.746Z,1024.4
2023-02-11T13:33:29.085Z,1024.4
2023-02-11T13:36:28.976Z,1024.4
2023-02-11T13:39:28.807Z,1024.4
2023-02-11T13:42:28.843Z,1024.4
2023-02-11T13:45:28.823Z,1024.4
2023-02-11T13:48:29.285Z,1024.5
2023-02-11T13:51:29.066Z,1024.5
2023-02-11T13:54:28.925Z,1024.6
2023-02-11T13:57:28.603Z,1024.6
2023-02-11T14:00:30.964Z,1024.6
2023-02-11T14:03:28.763Z,1024.6
2023-02-11T14:06:28.250Z,1024.6
2023-02-11T14:09:29.062Z,1024.7
2023-02-11T14:12:28.865Z,1024.7
2023-02-11T14:15:28.753Z,1024.8
2023-02-11T14:18:28.710Z,1024.8
2023-02-11T14:21:28.576Z,1024.9
2023-02-11T14:24:28.378Z,1025
2023-02-11T14:27:29.130Z,1025
2023-02-11T14:30:29.043Z,1025
2023-02-11T14:33:29.189Z,1025
2023-02-11T14:36:29.125Z,1025
2023-02-11T14:39:28.758Z,1025
2023-02-11T14:42:28.826Z,1025
2023-02-11T14:45:28.454Z,1025.2
2023-02-11T14:48:29.355Z,1025.2
2023-02-11T14:51:28.416Z,1025.3
2023-02-11T14:54:28.558Z,1025.3
2023-02-11T14:57:28.334Z,1025.3
2023-02-11T15:00:29.239Z,1025.3
2023-02-11T15:03:28.654Z,1025.4
2023-02-11T15:06:29.212Z,1025.4
2023-02-11T15:09:28.884Z,1025.4
2023-02-11T15:12:29.021Z,1025.4
2023-02-11T15:15:28.788Z,1025.5
2023-02-11T15:18:28.547Z,1025.5
2023-02-11T15:21:29.307Z,1025.6
2023-02-11T15:24:29.108Z,1025.6
2023-02-11T15:27:28.828Z,1025.7
2023-02-11T15:30:30.159Z,1025.7
2023-02-11T15:33:29.030Z,1025.7
2023-02-11T15:36:29.013Z,1025.8
2023-02-11T15:39:29.128Z,1025.8
2023-02-11T15:42:29.036Z,1025.8
2023-02-11T15:45:29.352Z,1025.8
2023-02-11T15:48:29.236Z,1025.8
2023-02-11T15:51:28.262Z,1025.8
2023-02-11T15:54:28.847Z,1025.8
2023-02-11T15:57:28.826Z,1025.8
2023-02-11T16:00:29.848Z,1025.9
2023-02-11T16:03:28.979Z,1025.9
2023-02-11T16:06:28.735Z,1026
2023-02-11T16:09:28.466Z,1026
2023-02-11T16:12:29.324Z,1026
2023-02-11T16:15:29.135Z,1026.1
2023-02-11T16:18:39.644Z,1026.1
2023-02-11T16:21:28.644Z,1026.1
2023-02-11T16:24:28.380Z,1026.1
2023-02-11T16:27:28.483Z,1026.1
2023-02-11T16:30:28.674Z,1026.2
2023-02-11T16:33:28.718Z,1026.2
2023-02-11T16:36:28.520Z,1026.3
2023-02-11T16:39:28.448Z,1026.4
2023-02-11T16:42:28.844Z,1026.5
2023-02-11T16:45:28.909Z,1026.5
2023-02-11T16:48:28.734Z,1026.6
2023-02-11T16:51:28.487Z,1026.5
2023-02-11T16:54:29.219Z,1026.6
2023-02-11T16:57:30.643Z,1026.6
2023-02-11T17:00:29.787Z,1026.6
2023-02-11T17:03:30.449Z,1026.6
2023-02-11T17:06:29.056Z,1026.7
2023-02-11T17:09:31.439Z,1026.7
2023-02-11T17:12:28.947Z,1026.8
2023-02-11T17:15:28.780Z,1026.8
2023-02-11T17:18:28.945Z,1026.9
2023-02-11T17:21:30.432Z,1027
2023-02-11T17:24:29.047Z,1027
2023-02-11T17:27:28.648Z,1027.1
2023-02-11T17:30:28.236Z,1027.1
2023-02-11T17:33:29.036Z,1027.2
2023-02-11T17:36:28.396Z,1027.2
2023-02-11T17:39:28.160Z,1027.3
2023-02-11T17:42:28.791Z,1027.3
2023-02-11T17:45:28.693Z,1027.3
2023-02-11T17:48:28.854Z,1027.4
2023-02-11T17:51:28.244Z,1027.4
2023-02-11T17:54:28.783Z,1027.5
2023-02-11T17:57:28.224Z,1027.5
2023-02-11T18:00:28.697Z,1027.5
2023-02-11T18:03:28.441Z,1027.6
2023-02-11T18:06:29.097Z,1027.6
2023-02-11T18:09:28.879Z,1027.6
2023-02-11T18:12:28.449Z,1027.7
2023-02-11T18:15:29.047Z,1027.7
2023-02-11T18:18:28.938Z,1027.8
2023-02-11T18:21:29.056Z,1027.8
2023-02-11T18:24:28.299Z,1027.9
2023-02-11T18:27:28.948Z,1027.9
2023-02-11T18:30:28.217Z,1027.9
2023-02-11T18:33:29.024Z,1028
2023-02-11T18:36:28.779Z,1028.1
2023-02-11T18:39:28.313Z,1028.1
2023-02-11T18:42:28.537Z,1028.1
2023-02-11T18:45:28.335Z,1028.1
2023-02-11T18:48:28.464Z,1028.1
2023-02-11T18:51:28.973Z,1028.2
2023-02-11T18:54:28.424Z,1028.2
2023-02-11T18:57:28.162Z,1028.3
2023-02-11T19:00:28.958Z,1028.4
2023-02-11T19:03:28.730Z,1028.4
2023-02-11T19:06:28.952Z,1028.4
2023-02-11T19:09:28.403Z,1028.4
2023-02-11T19:12:28.849Z,1028.4
2023-02-11T19:15:28.628Z,1028.4
2023-02-11T19:18:29.091Z,1028.4
2023-02-11T19:21:28.654Z,1028.3
2023-02-11T19:24:28.782Z,1028.3
2023-02-11T19:27:28.726Z,1028.2
2023-02-11T19:30:29.044Z,1028.2
2023-02-11T19:33:28.806Z,1028.2
2023-02-11T19:36:28.565Z,1028.2
2023-02-11T19:39:29.137Z,1028.2
2023-02-11T19:42:28.954Z,1028.2
2023-02-11T19:45:28.644Z,1028.2
2023-02-11T19:48:28.369Z,1028.2
2023-02-11T19:51:28.215Z,1028.2
2023-02-11T19:54:28.214Z,1028.2
2023-02-11T19:57:29.156Z,1028.2
2023-02-11T20:00:29.281Z,1028.2
2023-02-11T20:03:29.049Z,1028.3
2023-02-11T20:06:28.839Z,1028.3
2023-02-11T20:09:28.610Z,1028.3
2023-02-11T20:12:28.240Z,1028.4
2023-02-11T20:15:28.983Z,1028.5
2023-02-11T20:18:28.857Z,1028.6
2023-02-11T20:21:28.944Z,1028.7
2023-02-11T20:24:28.943Z,1028.7
2023-02-11T20:27:28.640Z,1028.7
2023-02-11T20:30:28.292Z,1028.7
2023-02-11T20:33:28.865Z,1028.7
2023-02-11T20:36:28.691Z,1028.7
2023-02-11T20:39:29.225Z,1028.7
2023-02-11T20:42:29.087Z,1028.8
2023-02-11T20:45:29.047Z,1028.8
2023-02-11T20:48:28.749Z,1028.8
2023-02-11T20:51:28.568Z,1028.9
2023-02-11T20:54:28.221Z,1028.8
2023-02-11T20:57:28.890Z,1028.8
2023-02-11T21:00:28.640Z,1028.8
2023-02-11T21:03:28.429Z,1028.9
2023-02-11T21:06:28.954Z,1028.9
2023-02-11T21:09:28.961Z,1029
2023-02-11T21:12:28.878Z,1029
2023-02-11T21:15:28.404Z,1029.1
2023-02-11T21:18:28.205Z,1029
2023-02-11T21:21:29.094Z,1029.1
2023-02-11T21:24:28.841Z,1029.1
2023-02-11T21:27:28.295Z,1029.1
2023-02-11T21:30:29.334Z,1029.2
2023-02-11T21:33:28.968Z,1029.2
2023-02-11T21:36:28.420Z,1029.3
2023-02-11T21:39:28.491Z,1029.3
2023-02-11T21:42:28.659Z,1029.3
2023-02-11T21:45:30.791Z,1029.4
2023-02-11T21:48:28.415Z,1029.4
2023-02-11T21:51:28.127Z,1029.5
2023-02-11T21:54:28.694Z,1029.5
2023-02-11T21:57:28.340Z,1029.6
2023-02-11T22:00:29.357Z,1029.7
2023-02-11T22:03:28.786Z,1029.7
2023-02-11T22:06:28.951Z,1029.7
2023-02-11T22:09:28.656Z,1029.8
2023-02-11T22:12:28.523Z,1029.8
2023-02-11T22:15:28.523Z,1029.8
2023-02-11T22:18:28.329Z,1029.8
2023-02-11T22:21:29.167Z,1029.8
2023-02-11T22:24:28.895Z,1029.9
2023-02-11T22:27:28.658Z,1029.9
2023-02-11T22:30:28.547Z,1030
2023-02-11T22:33:28.158Z,1030
2023-02-11T22:36:28.948Z,1030
2023-02-11T22:39:28.645Z,1030.1
2023-02-11T22:42:28.185Z,1030
2023-02-11T22:45:28.852Z,1030
2023-02-11T22:48:28.720Z,1030
2023-02-11T22:51:28.426Z,1030
2023-02-11T22:54:28.875Z,1030.1
2023-02-11T22:57:28.798Z,1030.2
2023-02-11T23:00:29.659Z,1030.2
2023-02-11T23:03:28.558Z,1030.2
2023-02-11T23:06:28.395Z,1030.2
2023-02-11T23:09:28.380Z,1030.3
2023-02-11T23:12:28.929Z,1030.3
2023-02-11T23:15:28.860Z,1030.3
2023-02-11T23:18:28.654Z,1030.4
2023-02-11T23:21:29.315Z,1030.4
2023-02-11T23:24:28.313Z,1030.4
2023-02-11T23:27:28.322Z,1030.4
2023-02-11T23:30:28.399Z,1030.5
2023-02-11T23:33:29.037Z,1030.5
2023-02-11T23:36:28.971Z,1030.6
2023-02-11T23:39:28.911Z,1030.6
2023-02-11T23:42:28.853Z,1030.6
2023-02-11T23:45:28.398Z,1030.6
2023-02-11T23:48:28.914Z,1030.7
2023-02-11T23:51:28.484Z,1030.7
2023-02-11T23:54:28.138Z,1030.8
2023-02-11T23:57:28.861Z,1030.8
